Time;durP1;ratioP1;P1;durP2;ratioP2;P2;SDS_P1;SDS_P2;PMS_P1;PMS_P2;Temp;Humidity;BMP_temperature;BMP_pressure;BME280_temperature;BME280_humidity;BME280_pressure;Samples;Min_cycle;Max_cycle;Signal;HPM_P1;HPM_P2
2023/04/13 00:01:34;;;;;;;3.53;1.00;;;5.60;99.90;;;;;;6246298;22;20021;-89
2023/04/13 00:04:03;;;;;;;3.90;1.10;;;5.60;99.90;;;;;;6195960;22;20017;-88
2023/04/13 00:06:29;;;;;;;4.95;1.25;;;5.60;99.90;;;;;;6245304;22;20021;-90
2023/04/13 00:08:54;;;;;;;3.43;1.13;;;5.60;99.90;;;;;;6243706;22;20014;-91
2023/04/13 00:11:20;;;;;;;3.43;1.43;;;5.60;99.90;;;;;;6244812;22;20014;-93
2023/04/13 00:13:46;;;;;;;2.88;1.25;;;5.70;99.90;;;;;;6244891;22;20009;-93
2023/04/13 00:16:15;;;;;;;3.57;1.63;;;5.60;99.90;;;;;;6244130;22;20014;-90
2023/04/13 00:18:43;;;;;;;5.28;1.92;;;5.60;99.90;;;;;;6244857;22;20021;-94
2023/04/13 00:21:09;;;;;;;3.42;1.33;;;5.60;99.90;;;;;;6247752;22;20041;-92
2023/04/13 00:23:50;;;;;;;3.97;1.83;;;5.70;99.90;;;;;;6283965;22;20018;-91
2023/04/13 00:26:23;;;;;;;4.67;1.80;;;5.70;99.90;;;;;;6353197;22;20028;-94
2023/04/13 00:28:50;;;;;;;4.53;1.55;;;5.70;99.90;;;;;;6355530;22;20032;-89
2023/04/13 00:31:15;;;;;;;4.78;1.60;;;5.70;99.90;;;;;;6327839;22;20018;-91
2023/04/13 00:33:44;;;;;;;4.80;1.73;;;5.80;99.90;;;;;;6326218;22;20021;-92
2023/04/13 00:36:23;;;;;;;3.85;1.30;;;5.80;99.90;;;;;;6352787;22;20090;-91
2023/04/13 00:38:49;;;;;;;4.32;1.48;;;5.80;99.90;;;;;;6351695;22;20020;-92
2023/04/13 00:41:15;;;;;;;3.77;1.40;;;5.80;99.90;;;;;;6352013;22;20093;-90
2023/04/13 00:54:22;;;;;;;6.00;1.92;;;5.90;99.90;;;;;;6339369;22;20077;-90
2023/04/13 01:16:36;;;;;;;;;;;;;;;;;;;;;
2023/04/13 01:19:09;;;;;;;4.05;1.88;;;6.10;99.90;;;;;;6246431;22;20016;-89
2023/04/13 01:21:37;;;;;;;4.35;1.83;;;6.20;99.90;;;;;;6220507;22;20043;-90
2023/04/13 01:24:31;;;;;;;4.70;2.13;;;6.10;99.90;;;;;;6220226;22;20011;-92
2023/04/13 01:39:53;;;;;;;4.38;2.20;;;6.10;99.90;;;;;;6400320;22;20022;-85
2023/04/13 01:42:19;;;;;;;4.83;2.17;;;6.10;99.90;;;;;;6402680;22;20110;-85
2023/04/13 01:44:45;;;;;;;4.03;1.97;;;6.10;99.90;;;;;;6242446;22;20026;-87
2023/04/13 01:47:16;;;;;;;2.93;1.50;;;6.10;99.90;;;;;;6220285;22;20099;-85
2023/04/13 01:49:52;;;;;;;5.15;2.05;;;6.10;99.90;;;;;;6245468;22;20019;-83
2023/04/13 01:52:23;;;;;;;4.53;1.55;;;6.10;99.90;;;;;;6245351;22;20391;-85
2023/04/13 01:54:50;;;;;;;4.00;1.40;;;6.10;99.90;;;;;;6245400;22;20020;-84
2023/04/13 01:57:16;;;;;;;;;;;6.10;99.90;;;;;;6220484;22;20012;-88
2023/04/13 01:59:43;;;;;;;3.28;1.35;;;6.10;99.90;;;;;;6219835;22;19916;-87
2023/04/13 02:02:09;;;;;;;4.15;1.65;;;6.10;99.90;;;;;;6220081;22;20011;-84
2023/04/13 02:04:35;;;;;;;3.60;1.70;;;6.10;99.90;;;;;;6219845;22;20012;-83
2023/04/13 02:07:01;;;;;;;4.43;1.50;;;6.10;99.90;;;;;;6219926;22;20008;-83
2023/04/13 02:09:27;;;;;;;4.05;1.40;;;6.10;99.90;;;;;;6245682;22;20352;-85
2023/04/13 02:11:54;;;;;;;2.20;1.00;;;6.10;99.90;;;;;;6245984;22;20051;-84
2023/04/13 02:14:26;;;;;;;2.40;1.00;;;6.10;99.90;;;;;;6245142;22;20020;-85
2023/04/13 02:16:52;;;;;;;2.30;1.05;;;6.00;99.90;;;;;;6245236;22;20038;-83
2023/04/13 02:19:19;;;;;;;2.45;0.98;;;6.10;99.90;;;;;;6272347;22;20086;-83
2023/04/13 02:21:45;;;;;;;3.45;0.98;;;6.00;99.90;;;;;;6245000;22;20527;-87
2023/04/13 02:24:10;;;;;;;2.27;0.97;;;6.00;99.90;;;;;;6219724;22;20016;-84
2023/04/13 02:26:36;;;;;;;3.83;1.00;;;6.00;99.90;;;;;;6219617;22;20019;-84
2023/04/13 02:29:02;;;;;;;2.73;0.97;;;6.00;99.90;;;;;;6245339;22;20020;-83
2023/04/13 02:31:30;;;;;;;2.87;1.07;;;6.00;99.90;;;;;;6272788;22;20024;-87
2023/04/13 02:33:56;;;;;;;2.38;1.00;;;6.00;99.90;;;;;;6272746;22;20018;-83
2023/04/13 02:36:23;;;;;;;3.00;1.00;;;6.00;99.90;;;;;;6245425;22;20047;-86
2023/04/13 02:38:49;;;;;;;2.67;0.80;;;6.00;99.90;;;;;;6272365;22;20020;-84
2023/04/13 02:41:15;;;;;;;2.93;1.10;;;6.00;99.90;;;;;;6272016;22;20043;-83
2023/04/13 02:43:42;;;;;;;1.90;0.82;;;6.00;99.90;;;;;;6245481;22;20287;-89
2023/04/13 02:46:08;;;;;;;1.88;0.73;;;6.00;99.90;;;;;;6219806;22;20035;-85
2023/04/13 02:48:33;;;;;;;3.93;1.10;;;6.00;99.90;;;;;;6245253;22;20019;-87
2023/04/13 02:50:59;;;;;;;2.30;1.00;;;6.00;99.90;;;;;;6194925;22;20121;-85
2023/04/13 02:53:26;;;;;;;1.90;0.70;;;6.00;99.90;;;;;;6245306;22;20048;-83
2023/04/13 02:55:52;;;;;;;1.73;0.65;;;6.00;99.90;;;;;;6245021;22;20349;-84
2023/04/13 02:58:19;;;;;;;2.22;0.88;;;6.00;99.90;;;;;;6245319;22;20020;-82
2023/04/13 03:00:44;;;;;;;1.95;0.85;;;6.00;99.90;;;;;;6245514;22;20019;-90
2023/04/13 03:03:13;;;;;;;1.58;0.60;;;6.00;99.90;;;;;;6246301;22;20020;-84
2023/04/13 03:05:39;;;;;;;2.87;1.00;;;6.00;99.90;;;;;;6245675;22;20015;-83
2023/04/13 03:08:05;;;;;;;3.13;0.80;;;6.00;99.90;;;;;;6245229;22;20347;-83
2023/04/13 03:10:30;;;;;;;2.40;0.83;;;6.10;99.90;;;;;;6245410;22;20019;-88
2023/04/13 03:12:56;;;;;;;3.07;0.73;;;6.10;99.90;;;;;;6245394;22;20038;-83
2023/04/13 03:15:22;;;;;;;1.33;0.73;;;6.10;99.90;;;;;;6220405;22;20052;-88
2023/04/13 03:17:48;;;;;;;3.73;1.00;;;6.10;99.90;;;;;;6272208;22;20487;-84
2023/04/13 03:20:15;;;;;;;1.77;0.67;;;6.10;99.90;;;;;;6272333;22;20448;-82
2023/04/13 03:22:42;;;;;;;1.95;0.60;;;6.00;99.90;;;;;;6219945;22;20020;-87
2023/04/13 03:25:08;;;;;;;2.10;0.70;;;6.10;99.90;;;;;;6245560;22;20020;-83
2023/04/13 03:27:35;;;;;;;1.88;0.73;;;6.10;99.90;;;;;;6272468;22;20011;-84
2023/04/13 03:30:03;;;;;;;;;;;6.10;99.90;;;;;;6272865;22;20452;-84
2023/04/13 03:32:31;;;;;;;1.73;0.60;;;6.10;99.90;;;;;;6272260;22;19915;-83
2023/04/13 03:34:57;;;;;;;1.83;0.70;;;6.10;99.90;;;;;;6245282;22;20088;-87
2023/04/13 03:37:22;;;;;;;3.37;0.80;;;6.10;99.90;;;;;;6245508;22;20016;-82
2023/04/13 03:39:48;;;;;;;1.57;0.60;;;6.10;99.90;;;;;;6219311;22;20050;-85
2023/04/13 03:42:14;;;;;;;1.73;0.60;;;6.10;99.90;;;;;;6271948;22;20027;-85
2023/04/13 03:44:39;;;;;;;3.47;1.00;;;6.10;99.90;;;;;;6245026;22;20095;-82
2023/04/13 03:47:08;;;;;;;1.13;0.47;;;6.20;99.90;;;;;;6272686;22;20020;-84
2023/04/13 03:49:34;;;;;;;1.92;0.77;;;6.20;99.90;;;;;;6245303;22;20396;-84
2023/04/13 03:52:00;;;;;;;1.23;0.50;;;6.20;99.90;;;;;;6219964;22;20020;-83
2023/04/13 03:54:30;;;;;;;1.37;0.50;;;6.20;99.90;;;;;;6272495;22;20015;-83
2023/04/13 03:56:57;;;;;;;1.77;0.63;;;6.20;99.90;;;;;;6220196;22;20385;-83
2023/04/13 03:59:23;;;;;;;2.22;0.63;;;6.30;99.90;;;;;;6219920;22;20478;-85
2023/04/13 04:01:55;;;;;;;2.15;0.80;;;6.20;99.90;;;;;;6220201;22;20052;-83
2023/04/13 04:04:30;;;;;;;2.03;0.60;;;6.20;99.90;;;;;;6219447;22;20011;-82
2023/04/13 04:06:57;;;;;;;2.00;0.45;;;6.20;99.90;;;;;;6245541;22;20082;-82
2023/04/13 04:09:33;;;;;;;1.30;0.60;;;6.30;99.90;;;;;;6220326;22;20340;-87
2023/04/13 04:12:17;;;;;;;2.58;0.60;;;6.30;99.90;;;;;;6245212;22;20031;-83
2023/04/13 04:14:47;;;;;;;1.92;0.70;;;6.30;99.90;;;;;;6244760;22;20019;-83
2023/04/13 04:17:13;;;;;;;3.88;0.60;;;6.30;99.90;;;;;;6219523;22;20020;-83
2023/04/13 04:19:39;;;;;;;3.00;0.97;;;6.30;99.90;;;;;;6244576;22;20019;-87
2023/04/13 04:22:05;;;;;;;3.33;0.80;;;6.30;99.90;;;;;;6244618;22;20019;-83
2023/04/13 04:24:32;;;;;;;1.83;0.73;;;6.30;99.90;;;;;;6244780;22;20016;-85
2023/04/13 04:27:01;;;;;;;1.05;0.52;;;6.30;99.90;;;;;;6245008;22;20049;-84
2023/04/13 04:29:33;;;;;;;2.42;0.98;;;6.40;99.90;;;;;;6244745;22;20022;-85
2023/04/13 04:32:04;;;;;;;2.03;0.60;;;6.30;99.90;;;;;;6220917;22;20011;-84
2023/04/13 04:34:30;;;;;;;2.42;0.77;;;6.30;99.90;;;;;;6244361;22;20412;-84
2023/04/13 04:37:02;;;;;;;2.35;0.90;;;6.40;99.90;;;;;;6244518;22;20337;-87
2023/04/13 04:39:31;;;;;;;2.85;1.02;;;6.30;99.90;;;;;;6323552;22;20019;-87
2023/04/13 04:42:01;;;;;;;2.25;0.90;;;6.40;99.90;;;;;;6220188;22;20016;-83
2023/04/13 04:44:29;;;;;;;2.13;0.82;;;6.30;99.90;;;;;;6244982;22;20023;-86
2023/04/13 04:46:59;;;;;;;1.60;0.70;;;6.30;99.90;;;;;;6244653;22;20058;-84
2023/04/13 04:49:26;;;;;;;1.48;0.80;;;6.20;99.90;;;;;;6244790;22;20019;-83
2023/04/13 04:51:54;;;;;;;2.03;0.88;;;6.20;99.90;;;;;;6244302;22;20051;-86
2023/04/13 04:54:20;;;;;;;3.10;1.23;;;6.20;99.90;;;;;;6245135;22;20018;-86
2023/04/13 04:56:46;;;;;;;2.58;0.80;;;6.10;99.90;;;;;;6244657;22;20015;-83
2023/04/13 04:59:12;;;;;;;2.15;0.98;;;6.20;99.90;;;;;;6244559;22;20027;-84
2023/04/13 05:01:39;;;;;;;2.97;1.20;;;6.20;99.90;;;;;;6244402;22;20094;-85
2023/04/13 05:04:05;;;;;;;2.75;1.10;;;6.10;99.90;;;;;;6242611;22;20045;-83
2023/04/13 05:06:31;;;;;;;3.40;0.75;;;6.10;99.90;;;;;;6270511;22;20047;-87
2023/04/13 05:09:02;;;;;;;1.55;0.70;;;6.10;99.90;;;;;;6243472;22;20047;-82
2023/04/13 05:11:28;;;;;;;2.42;0.90;;;6.10;99.90;;;;;;6219044;22;20340;-83
2023/04/13 05:13:55;;;;;;;3.67;0.80;;;6.10;99.90;;;;;;6244238;22;20092;-83
2023/04/13 05:16:23;;;;;;;1.58;0.60;;;6.10;99.90;;;;;;6244282;22;20496;-83
2023/04/13 05:19:07;;;;;;;2.42;0.90;;;6.10;99.90;;;;;;6244598;22;20266;-83
2023/04/13 05:21:52;;;;;;;3.10;1.00;;;6.10;99.90;;;;;;6221391;22;20378;-89
2023/04/13 05:24:18;;;;;;;2.10;0.80;;;6.20;99.90;;;;;;6220398;22;20023;-89
2023/04/13 05:26:43;;;;;;;1.63;0.73;;;6.20;99.90;;;;;;6220285;22;20016;-89
2023/04/13 05:29:09;;;;;;;3.03;1.23;;;6.20;99.90;;;;;;6220741;22;20092;-89
2023/04/13 05:31:40;;;;;;;2.70;1.20;;;6.20;99.90;;;;;;6220242;22;20015;-90
2023/04/13 05:34:06;;;;;;;3.78;1.50;;;6.30;99.90;;;;;;6220423;22;20022;-89
2023/04/13 05:36:32;;;;;;;3.93;1.63;;;6.30;99.90;;;;;;6194593;22;20039;-80
2023/04/13 05:39:01;;;;;;;4.22;1.70;;;6.30;99.90;;;;;;6244603;22;20019;-79
2023/04/13 05:41:27;;;;;;;3.83;1.75;;;6.40;99.90;;;;;;6271507;22;20012;-78
2023/04/13 05:43:52;;;;;;;3.77;1.37;;;6.40;99.90;;;;;;6219362;22;20016;-85
2023/04/13 05:46:19;;;;;;;3.90;1.70;;;6.50;99.90;;;;;;6271302;22;20053;-82
2023/04/13 05:48:45;;;;;;;4.65;1.65;;;6.50;99.90;;;;;;6219247;22;20026;-80
2023/04/13 05:51:17;;;;;;;3.37;1.40;;;6.50;99.90;;;;;;6244216;22;20024;-87
2023/04/13 05:53:42;;;;;;;4.72;1.63;;;6.60;99.90;;;;;;6171602;22;20061;-86
2023/04/13 05:56:08;;;;;;;6.37;2.07;;;6.60;99.90;;;;;;6218986;22;20027;-89
2023/04/13 05:58:34;;;;;;;4.63;1.90;;;6.70;99.90;;;;;;6218824;22;20023;-88
2023/04/13 06:01:03;;;;;;;5.30;1.87;;;6.80;99.90;;;;;;6194599;22;20011;-88
2023/04/13 06:03:35;;;;;;;4.63;1.98;;;6.90;99.90;;;;;;6245767;22;20019;-85
2023/04/13 06:06:03;;;;;;;5.57;1.67;;;7.00;99.90;;;;;;6218410;22;20016;-85
2023/04/13 06:08:32;;;;;;;3.95;1.38;;;7.10;99.90;;;;;;6220872;22;20015;-84
2023/04/13 06:10:58;;;;;;;3.17;1.35;;;7.10;99.90;;;;;;6253323;22;20020;-84
2023/04/13 06:13:24;;;;;;;4.73;1.80;;;7.20;99.90;;;;;;6224959;22;20015;-89
2023/04/13 06:15:51;;;;;;;4.43;1.48;;;7.30;99.90;;;;;;6224999;22;20259;-86
2023/04/13 06:18:20;;;;;;;;;;;7.30;99.90;;;;;;6195351;22;20045;-86
2023/04/13 06:21:20;;;;;;;7.88;1.75;;;7.40;99.90;;;;;;6244715;22;19915;-85
2023/04/13 06:24:01;;;;;;;2.65;0.90;;;7.50;99.90;;;;;;6244795;22;20082;-84
2023/04/13 06:26:27;;;;;;;3.25;1.20;;;7.60;99.90;;;;;;6220617;22;20108;-87
2023/04/13 06:28:53;;;;;;;2.58;1.00;;;7.70;99.90;;;;;;6194593;22;20080;-84
2023/04/13 06:31:20;;;;;;;4.30;1.23;;;7.70;99.90;;;;;;6219619;22;20020;-84
2023/04/13 06:34:09;;;;;;;3.28;1.00;;;7.70;99.90;;;;;;6271943;22;20022;-85
2023/04/13 06:36:36;;;;;;;3.53;1.20;;;7.60;99.90;;;;;;6272447;22;20099;-85
2023/04/13 06:39:03;;;;;;;318.15;43.80;;;7.50;99.90;;;;;;6245506;22;20023;-87
2023/04/13 06:41:28;;;;;;;127.68;17.77;;;7.50;99.90;;;;;;6221501;22;20206;-86
2023/04/13 06:43:54;;;;;;;8.77;2.43;;;7.40;99.90;;;;;;6246145;22;20046;-87
2023/04/13 06:46:21;;;;;;;6.63;2.20;;;7.40;99.90;;;;;;6245682;22;20011;-85
2023/04/13 06:48:47;;;;;;;4.22;1.20;;;7.40;99.90;;;;;;6195163;22;20020;-83
2023/04/13 06:51:12;;;;;;;7.23;1.20;;;7.40;99.90;;;;;;6245151;22;20031;-85
2023/04/13 06:53:38;;;;;;;1.13;0.50;;;7.40;99.90;;;;;;6244965;22;20356;-85
2023/04/13 06:56:05;;;;;;;2.60;0.80;;;7.40;99.90;;;;;;6245566;22;20024;-85
2023/04/13 06:58:31;;;;;;;4.20;0.98;;;7.40;99.90;;;;;;6245245;22;20378;-88
2023/04/13 07:00:57;;;;;;;2.23;0.73;;;7.40;99.90;;;;;;6219833;22;20015;-86
2023/04/13 07:06:10;;;;;;;2.97;0.80;;;7.40;99.90;;;;;;6270969;22;20031;-85
2023/04/13 07:08:36;;;;;;;2.45;0.70;;;7.30;99.90;;;;;;6220349;22;20456;-84
2023/04/13 07:11:01;;;;;;;3.43;0.90;;;7.30;99.90;;;;;;6195824;22;20082;-86
2023/04/13 07:13:27;;;;;;;3.13;0.97;;;7.30;99.90;;;;;;6220455;22;20057;-79
2023/04/13 07:15:53;;;;;;;3.70;1.10;;;7.30;99.90;;;;;;6245638;22;20051;-86
2023/04/13 07:18:19;;;;;;;4.60;1.40;;;7.30;99.90;;;;;;6195396;22;20024;-87
2023/04/13 07:20:46;;;;;;;4.60;1.57;;;7.20;99.90;;;;;;6195506;22;20035;-81
2023/04/13 07:23:31;;;;;;;2.97;1.20;;;7.40;99.90;;;;;;6245993;22;20020;-84
2023/04/13 07:25:57;;;;;;;6.75;2.38;;;7.80;99.90;;;;;;6245204;22;20020;-86
2023/04/13 07:28:24;;;;;;;5.68;2.25;;;8.00;99.90;;;;;;6197222;22;20016;-89
2023/04/13 07:30:53;;;;;;;6.57;2.10;;;8.70;99.90;;;;;;6221939;22;20051;-94
2023/04/13 07:33:18;;;;;;;4.22;1.40;;;9.60;99.90;;;;;;6246934;22;20357;-89
2023/04/13 07:35:45;;;;;;;4.23;1.40;;;9.90;99.90;;;;;;6195402;22;20027;-89
2023/04/13 07:40:50;;;;;;;6.05;1.15;;;9.40;99.90;;;;;;6270823;22;20023;-87
2023/04/13 07:43:16;;;;;;;3.00;1.43;;;9.30;99.90;;;;;;6220147;22;20037;-88
2023/04/13 07:45:42;;;;;;;4.50;1.40;;;9.30;99.90;;;;;;6220116;22;20332;-88
2023/04/13 07:48:08;;;;;;;2.58;1.10;;;9.10;99.90;;;;;;6220030;22;20016;-87
2023/04/13 07:50:40;;;;;;;5.40;1.27;;;8.80;99.90;;;;;;6195100;22;20099;-87
2023/04/13 07:53:21;;;;;;;4.75;1.40;;;8.60;99.90;;;;;;6245501;22;20019;-88
2023/04/13 07:55:47;;;;;;;4.35;1.13;;;8.40;99.90;;;;;;6219848;22;20345;-91
2023/04/13 07:58:13;;;;;;;4.07;1.40;;;8.30;99.90;;;;;;6219959;22;20026;-89
2023/04/13 08:00:38;;;;;;;5.37;1.63;;;8.30;99.90;;;;;;6194821;22;20377;-88
2023/04/13 08:03:05;;;;;;;4.70;1.50;;;8.30;99.90;;;;;;6170006;22;20092;-87
2023/04/13 08:05:33;;;;;;;3.42;1.40;;;8.40;99.90;;;;;;6170868;22;20015;-86
2023/04/13 08:08:46;;;;;;;3.03;1.48;;;8.40;99.90;;;;;;6244823;22;20019;-87
2023/04/13 08:11:45;;;;;;;3.03;1.02;;;8.50;99.90;;;;;;6220062;22;20102;-88
2023/04/13 08:14:26;;;;;;;3.95;1.00;;;8.50;99.90;;;;;;6219803;22;20024;-86
2023/04/13 08:16:52;;;;;;;4.15;1.25;;;8.50;99.90;;;;;;6245000;22;20013;-87
2023/04/13 08:19:18;;;;;;;5.80;1.40;;;8.40;99.90;;;;;;6271732;22;20118;-87
2023/04/13 08:21:43;;;;;;;6.90;2.47;;;8.40;99.90;;;;;;6244828;22;20428;-85
2023/04/13 08:24:12;;;;;;;6.93;3.17;;;8.50;99.90;;;;;;6244944;22;20055;-86
2023/04/13 08:26:38;;;;;;;11.48;10.40;;;8.50;99.90;;;;;;6218602;22;20022;-85
2023/04/13 08:29:04;;;;;;;3.95;1.83;;;8.60;99.90;;;;;;6268455;22;20054;-89
2023/04/13 08:31:31;;;;;;;6.30;5.00;;;8.60;99.90;;;;;;6244878;22;20035;-88
2023/04/13 08:33:57;;;;;;;8.80;5.50;;;8.60;99.90;;;;;;6219712;22;20044;-88
2023/04/13 08:36:22;;;;;;;4.13;0.93;;;8.60;99.90;;;;;;6169830;22;20048;-89
2023/04/13 08:39:00;;;;;;;1.07;0.50;;;8.60;99.90;;;;;;6271055;22;20016;-88
2023/04/13 08:41:26;;;;;;;1.00;0.60;;;8.60;99.90;;;;;;6194493;22;20072;-88
2023/04/13 08:43:54;;;;;;;3.87;1.30;;;8.70;99.90;;;;;;6219318;22;20023;-88
2023/04/13 08:46:20;;;;;;;2.25;0.40;;;8.70;99.90;;;;;;6245460;22;20024;-88
2023/04/13 08:48:48;;;;;;;3.55;0.95;;;8.80;99.90;;;;;;6245042;22;20422;-86
2023/04/13 08:51:14;;;;;;;3.03;1.10;;;8.80;99.90;;;;;;6271218;22;20137;-87
2023/04/13 08:53:40;;;;;;;2.23;1.03;;;8.80;99.90;;;;;;6244698;22;20048;-88
2023/04/13 08:56:10;;;;;;;2.35;0.75;;;8.80;99.90;;;;;;6219145;22;20322;-89
2023/04/13 08:58:40;;;;;;;2.50;1.25;;;8.80;99.90;;;;;;6244566;22;20061;-88
2023/04/13 09:01:06;;;;;;;3.25;1.88;;;8.90;99.90;;;;;;6271829;22;20386;-87
2023/04/13 09:03:38;;;;;;;2.23;0.77;;;8.90;99.90;;;;;;6245066;22;20016;-87
2023/04/13 09:06:08;;;;;;;1.80;0.70;;;8.90;99.90;;;;;;6219564;22;20290;-89
2023/04/13 09:08:36;;;;;;;1.88;0.50;;;8.80;99.90;;;;;;6271908;22;20049;-90
2023/04/13 09:11:02;;;;;;;0.85;0.40;;;8.80;99.90;;;;;;6219961;22;20021;-89
2023/04/13 09:13:31;;;;;;;0.93;0.40;;;8.70;99.90;;;;;;6245845;22;20100;-90
2023/04/13 09:15:56;;;;;;;0.70;0.33;;;8.60;99.90;;;;;;6195261;22;20400;-91
2023/04/13 09:18:22;;;;;;;1.53;0.40;;;8.40;99.90;;;;;;6220316;22;20016;-90
2023/04/13 09:20:56;;;;;;;2.75;0.50;;;8.40;99.90;;;;;;6271750;22;20016;-88
2023/04/13 09:23:22;;;;;;;2.25;0.52;;;8.30;99.90;;;;;;6271397;22;20008;-87
2023/04/13 09:25:49;;;;;;;2.30;0.40;;;8.30;99.90;;;;;;6218797;22;20041;-87
2023/04/13 09:28:18;;;;;;;0.50;0.20;;;8.30;99.90;;;;;;6271310;22;20008;-87
2023/04/13 09:30:45;;;;;;;1.88;0.40;;;8.40;99.90;;;;;;6271192;22;20445;-87
2023/04/13 09:33:12;;;;;;;1.45;0.40;;;8.50;99.90;;;;;;6243464;22;20019;-88
2023/04/13 09:35:38;;;;;;;7.38;2.42;;;8.70;99.90;;;;;;6269740;22;20020;-87
2023/04/13 09:38:06;;;;;;;4.70;1.63;;;8.80;99.90;;;;;;6243935;22;20030;-87
2023/04/13 09:40:32;;;;;;;170.65;59.65;;;8.80;99.90;;;;;;6244023;22;20734;-87
2023/04/13 09:43:00;;;;;;;4.70;2.90;;;8.80;99.90;;;;;;6271369;22;20058;-86
2023/04/13 09:45:43;;;;;;;2.88;1.38;;;8.70;99.90;;;;;;6244191;22;20656;-87
2023/04/13 09:48:20;;;;;;;3.38;1.27;;;8.70;99.90;;;;;;6271510;22;20012;-90
2023/04/13 09:50:56;;;;;;;2.15;0.80;;;8.60;99.90;;;;;;6244204;22;20016;-86
2023/04/13 09:53:22;;;;;;;1.83;1.15;;;8.50;99.90;;;;;;6244453;22;20027;-90
2023/04/13 09:55:58;;;;;;;2.17;0.60;;;8.40;99.90;;;;;;6244877;22;20011;-87
2023/04/13 09:58:25;;;;;;;3.15;0.88;;;8.40;99.90;;;;;;6244666;22;20330;-89
2023/04/13 10:00:52;;;;;;;;;;;8.20;99.90;;;;;;6218773;22;20061;-88
2023/04/13 10:03:20;;;;;;;2.97;0.20;;;8.10;99.90;;;;;;6220252;22;20348;-89
2023/04/13 10:05:46;;;;;;;0.47;0.25;;;8.00;99.90;;;;;;6245817;22;20008;-87
2023/04/13 10:08:12;;;;;;;0.25;0.17;;;7.90;99.90;;;;;;6220685;22;20067;-88
2023/04/13 10:10:41;;;;;;;2.25;0.55;;;7.80;99.90;;;;;;6220548;22;20012;-89
2023/04/13 10:13:14;;;;;;;3.10;0.90;;;7.80;99.90;;;;;;6221247;22;20091;-87
2023/04/13 10:16:26;;;;;;;5.28;1.92;;;7.70;99.90;;;;;;6220216;22;20016;-86
2023/04/13 10:19:06;;;;;;;6.18;1.60;;;7.70;99.90;;;;;;6273708;22;20071;-87
2023/04/13 10:21:38;;;;;;;1.92;0.75;;;7.70;99.90;;;;;;6245455;22;20049;-87
2023/04/13 10:24:11;;;;;;;2.40;0.95;;;7.70;99.90;;;;;;6245623;22;20019;-88
2023/04/13 10:26:37;;;;;;;1.27;0.30;;;7.70;99.90;;;;;;6246440;22;20012;-90
2023/04/13 10:29:04;;;;;;;1.25;0.30;;;7.80;99.90;;;;;;6244129;22;20018;-88
2023/04/13 10:31:39;;;;;;;0.93;0.50;;;7.80;99.90;;;;;;6219665;22;20027;-88
2023/04/13 10:34:09;;;;;;;2.55;0.75;;;8.00;99.90;;;;;;6219887;22;20012;-88
2023/04/13 10:36:42;;;;;;;4.00;1.02;;;8.10;99.90;;;;;;6219953;22;20015;-89
2023/04/13 10:39:32;;;;;;;1.73;0.50;;;8.30;99.90;;;;;;6219817;22;20493;-87
2023/04/13 10:42:02;;;;;;;0.80;0.40;;;8.50;99.90;;;;;;6245306;22;20433;-90
2023/04/13 10:44:47;;;;;;;1.77;0.55;;;8.70;99.90;;;;;;6272604;22;20020;-89
2023/04/13 10:47:15;;;;;;;1.25;0.40;;;8.90;99.90;;;;;;6220130;22;20016;-90
2023/04/13 10:49:46;;;;;;;1.13;0.47;;;9.00;99.90;;;;;;6195753;22;20020;-91
2023/04/13 10:52:13;;;;;;;1.65;0.57;;;9.20;99.90;;;;;;6220465;22;20063;-89
2023/04/13 10:54:40;;;;;;;1.02;0.40;;;9.30;99.90;;;;;;6220258;22;20453;-87
2023/04/13 10:57:08;;;;;;;1.13;0.38;;;9.40;99.90;;;;;;6245408;22;20016;-90
2023/04/13 10:59:50;;;;;;;3.45;0.40;;;9.60;99.90;;;;;;6219922;22;20072;-91
2023/04/13 11:02:16;;;;;;;1.80;0.50;;;9.80;99.90;;;;;;6220527;22;20020;-85
2023/04/13 11:04:43;;;;;;;;;;;9.90;99.90;;;;;;6220873;22;20348;-89
2023/04/13 11:07:15;;;;;;;1.48;0.50;;;9.90;99.90;;;;;;6245288;22;19919;-89
2023/04/13 11:09:46;;;;;;;2.00;0.60;;;10.00;99.90;;;;;;6220414;22;20322;-93
2023/04/13 11:12:15;;;;;;;0.80;0.20;;;9.90;99.90;;;;;;6220561;22;20042;-86
2023/04/13 11:14:56;;;;;;;2.03;0.40;;;9.80;99.90;;;;;;6245922;22;20157;-85
2023/04/13 11:17:22;;;;;;;1.48;0.30;;;9.60;99.90;;;;;;6195127;22;20020;-88
2023/04/13 11:19:50;;;;;;;1.07;0.23;;;9.60;99.90;;;;;;6220746;22;20023;-88
2023/04/13 11:22:17;;;;;;;0.73;0.22;;;9.40;99.90;;;;;;6220555;22;20019;-87
2023/04/13 11:24:44;;;;;;;1.92;0.30;;;9.30;99.90;;;;;;6221055;22;20019;-91
2023/04/13 11:27:23;;;;;;;2.70;0.50;;;9.20;99.90;;;;;;6221560;22;20044;-89
2023/04/13 11:30:26;;;;;;;1.17;0.22;;;9.10;99.90;;;;;;6247434;22;20023;-90
2023/04/13 11:33:23;;;;;;;1.13;0.30;;;9.10;99.90;;;;;;6249339;22;20012;-89
2023/04/13 11:35:50;;;;;;;1.05;0.20;;;9.20;99.90;;;;;;6249196;22;20445;-89
2023/04/13 11:38:16;;;;;;;2.25;0.63;;;9.40;99.90;;;;;;6219646;22;20058;-93
2023/04/13 11:40:44;;;;;;;3.13;0.70;;;9.50;99.90;;;;;;6220594;22;20023;-92
2023/04/13 11:43:25;;;;;;;2.97;0.60;;;9.50;99.90;;;;;;6197106;22;20016;-95
2023/04/13 11:45:53;;;;;;;1.65;0.43;;;9.60;99.90;;;;;;6220788;22;20020;-91
2023/04/13 11:48:19;;;;;;;2.92;0.80;;;9.60;99.90;;;;;;6220797;22;20457;-89
2023/04/13 11:50:54;;;;;;;4.47;1.20;;;9.70;99.90;;;;;;6272920;22;20015;-90
2023/04/13 11:53:20;;;;;;;5.75;0.90;;;9.80;99.90;;;;;;6219560;22;20348;-90
2023/04/13 11:55:46;;;;;;;2.20;1.15;;;9.90;99.90;;;;;;6169529;22;20356;-89
2023/04/13 11:58:17;;;;;;;4.00;0.80;;;9.90;99.90;;;;;;6219241;22;20076;-88
2023/04/13 12:00:43;;;;;;;2.10;0.70;;;9.90;99.90;;;;;;6221766;22;20058;-88
2023/04/13 12:03:19;;;;;;;2.08;0.70;;;9.90;99.90;;;;;;6197513;22;20012;-90
2023/04/13 12:05:46;;;;;;;5.32;0.63;;;9.80;99.90;;;;;;6195947;22;20023;-88
2023/04/13 12:08:23;;;;;;;5.75;1.90;;;9.80;99.90;;;;;;6246681;22;20020;-89
2023/04/13 12:10:57;;;;;;;1.75;0.80;;;9.80;99.90;;;;;;6221515;22;20144;-93
2023/04/13 12:13:23;;;;;;;3.65;1.23;;;9.80;99.90;;;;;;6220786;22;20012;-87
2023/04/13 12:15:49;;;;;;;3.33;1.10;;;9.80;99.90;;;;;;6220074;22;20058;-88
2023/04/13 12:18:15;;;;;;;3.10;0.63;;;9.80;99.90;;;;;;6196139;22;20095;-89
2023/04/13 12:20:43;;;;;;;4.40;0.70;;;9.80;99.90;;;;;;6221051;22;20098;-88
2023/04/13 12:23:19;;;;;;;4.47;0.57;;;9.90;99.90;;;;;;6245643;22;20016;-88
2023/04/13 12:25:58;;;;;;;3.95;0.63;;;9.90;99.90;;;;;;6271931;22;20012;-89
2023/04/13 12:28:36;;;;;;;3.65;0.65;;;9.90;99.90;;;;;;6245680;22;20055;-93
2023/04/13 12:31:06;;;;;;;3.60;0.50;;;9.90;99.90;;;;;;6220978;22;20019;-90
2023/04/13 12:33:33;;;;;;;4.10;0.63;;;9.90;99.90;;;;;;6220372;22;20016;-89
2023/04/13 12:35:59;;;;;;;3.95;1.50;;;9.90;99.90;;;;;;6247353;22;20012;-93
2023/04/13 12:38:26;;;;;;;3.88;0.80;;;9.90;99.90;;;;;;6223998;22;20053;-95
2023/04/13 12:40:59;;;;;;;3.55;0.57;;;9.90;99.90;;;;;;6223200;22;20363;-89
2023/04/13 12:43:25;;;;;;;3.70;1.00;;;9.90;99.90;;;;;;6248558;22;20054;-86
2023/04/13 12:45:52;;;;;;;;;;;10.00;99.90;;;;;;6227520;22;20034;-93
2023/04/13 12:48:18;;;;;;;3.50;0.57;;;10.00;99.90;;;;;;6223834;22;19915;-93
2023/04/13 12:51:08;;;;;;;3.97;0.57;;;10.00;99.90;;;;;;6251401;22;20495;-94
2023/04/13 12:53:34;;;;;;;4.57;0.90;;;10.10;99.90;;;;;;6224908;22;20016;-90
2023/04/13 12:56:02;;;;;;;2.70;0.65;;;10.10;99.90;;;;;;6249645;22;20339;-93
2023/04/13 12:58:28;;;;;;;3.38;0.75;;;10.10;99.90;;;;;;6224454;22;20016;-93
2023/04/13 13:00:54;;;;;;;1.80;0.47;;;10.00;99.90;;;;;;6224890;22;20023;-89
2023/04/13 13:03:23;;;;;;;2.60;0.50;;;9.90;99.90;;;;;;6250057;22;20079;-92
2023/04/13 13:05:49;;;;;;;2.13;0.40;;;10.00;99.90;;;;;;6223971;22;20020;-93
2023/04/13 13:08:15;;;;;;;2.65;0.60;;;9.90;99.90;;;;;;6247522;22;20011;-88
2023/04/13 13:10:44;;;;;;;6.17;0.70;;;9.90;99.90;;;;;;6247682;22;20458;-90
2023/04/13 13:13:10;;;;;;;3.83;0.50;;;9.80;99.90;;;;;;6222230;22;20410;-93
2023/04/13 13:15:36;;;;;;;2.10;0.70;;;9.80;99.90;;;;;;6223000;22;20016;-95
2023/04/13 13:18:07;;;;;;;6.47;1.38;;;9.80;99.90;;;;;;6225145;22;20253;-90
2023/04/13 13:20:35;;;;;;;4.88;0.60;;;9.80;99.90;;;;;;6252062;22;20047;-92
2023/04/13 13:23:20;;;;;;;4.03;0.98;;;9.90;99.90;;;;;;6225823;22;20022;-93
2023/04/13 13:25:45;;;;;;;3.25;0.68;;;9.90;99.90;;;;;;6224850;22;20031;-91
2023/04/13 13:28:11;;;;;;;3.00;0.70;;;9.90;99.90;;;;;;6273743;22;20024;-91
2023/04/13 13:30:37;;;;;;;5.53;0.73;;;10.00;99.90;;;;;;6221276;22;20445;-91
2023/04/13 13:33:04;;;;;;;4.93;1.23;;;10.00;99.90;;;;;;6196505;22;20027;-79
2023/04/13 13:35:32;;;;;;;1.95;0.57;;;10.00;99.90;;;;;;6271554;22;20015;-79
2023/04/13 13:38:00;;;;;;;3.25;0.95;;;10.00;99.90;;;;;;6245137;22;20088;-80
2023/04/13 13:40:26;;;;;;;10.15;1.67;;;9.90;99.90;;;;;;6240384;23;20457;-78
2023/04/13 13:42:52;;;;;;;8.27;2.45;;;9.90;99.90;;;;;;6240674;23;20027;-82
2023/04/13 13:45:19;;;;;;;;;;;9.80;99.90;;;;;;6321687;22;20023;-86
2023/04/13 13:47:53;;;;;;;6.22;1.50;;;9.80;99.90;;;;;;6240236;23;19915;-79
2023/04/13 13:50:20;;;;;;;10.45;3.55;;;9.80;99.90;;;;;;6240538;23;20050;-79
2023/04/13 13:52:47;;;;;;;4.28;1.15;;;9.80;99.90;;;;;;6242103;22;20016;-82
2023/04/13 13:55:13;;;;;;;;;;;9.80;99.90;;;;;;6239256;22;20344;-80
2023/04/13 13:57:38;;;;;;;1.80;0.40;;;9.70;99.90;;;;;;6241300;22;19951;-81
2023/04/13 14:00:18;;;;;;;1.47;0.37;;;9.70;99.90;;;;;;6241723;22;20099;-84